sensor_id;sensor_type;location;lat;lon;timestamp;pressure;altitude;pressure_sealevel;temperature;humidity
24230;BME280;12362;50.004;8.006;2023-03-01T00:02:05;101790.94;;;0.71;100.00
24230;BME280;12362;50.004;8.006;2023-03-01T00:04:31;101790.97;;;0.73;100.00
24230;BME280;12362;50.004;8.006;2023-03-01T00:07:00;101799.44;;;0.70;100.00
24230;BME280;12362;50.004;8.006;2023-03-01T00:09:26;101801.06;;;0.64;100.00
24230;BME280;12362;50.004;8.006;2023-03-01T00:11:51;101813.72;;;0.55;100.00
24230;BME280;12362;50.004;8.006;2023-03-01T00:14:20;101811.78;;;0.39;100.00
24230;BME280;12362;50.004;8.006;2023-03-01T00:16:45;101810.81;;;0.29;100.00
24230;BME280;12362;50.004;8.006;2023-03-01T00:19:14;101808.19;;;0.26;100.00
24230;BME280;12362;50.004;8.006;2023-03-01T00:21:40;101817.47;;;0.20;100.00
24230;BME280;12362;50.004;8.006;2023-03-01T00:24:05;101814.66;;;0.05;100.00
24230;BME280;12362;50.004;8.006;2023-03-01T00:26:31;101810.44;;;0.05;100.00
24230;BME280;12362;50.004;8.006;2023-03-01T00:28:58;101805.13;;;-0.05;100.00
24230;BME280;12362;50.004;8.006;2023-03-01T00:31:26;101806.72;;;-0.13;100.00
24230;BME280;12362;50.004;8.006;2023-03-01T00:33:53;101804.25;;;-0.05;100.00
24230;BME280;12362;50.004;8.006;2023-03-01T00:36:24;101796.72;;;-0.01;100.00
24230;BME280;12362;50.004;8.006;2023-03-01T00:38:50;101795.69;;;-0.12;100.00
24230;BME280;12362;50.004;8.006;2023-03-01T00:41:17;101803.19;;;-0.19;100.00
24230;BME280;12362;50.004;8.006;2023-03-01T00:43:46;101797.28;;;-0.17;100.00
24230;BME280;12362;50.004;8.006;2023-03-01T00:46:17;101794.81;;;-0.12;100.00
24230;BME280;12362;50.004;8.006;2023-03-01T00:48:43;101791.53;;;-0.04;100.00
24230;BME280;12362;50.004;8.006;2023-03-01T00:51:12;101791.63;;;0.00;100.00
24230;BME280;12362;50.004;8.006;2023-03-01T00:53:38;101792.50;;;0.02;100.00
24230;BME280;12362;50.004;8.006;2023-03-01T00:56:05;101788.28;;;0.04;100.00
24230;BME280;12362;50.004;8.006;2023-03-01T00:58:31;101784.09;;;0.09;100.00
24230;BME280;12362;50.004;8.006;2023-03-01T01:00:57;101776.50;;;0.12;100.00
24230;BME280;12362;50.004;8.006;2023-03-01T01:03:23;101784.22;;;0.17;100.00
24230;BME280;12362;50.004;8.006;2023-03-01T01:05:51;101777.38;;;0.16;100.00
24230;BME280;12362;50.004;8.006;2023-03-01T01:08:18;101775.72;;;0.18;100.00
24230;BME280;12362;50.004;8.006;2023-03-01T01:10:45;101770.56;;;0.15;100.00
24230;BME280;12362;50.004;8.006;2023-03-01T01:13:11;101762.78;;;0.07;100.00
24230;BME280;12362;50.004;8.006;2023-03-01T01:15:37;101763.59;;;0.05;100.00
24230;BME280;12362;50.004;8.006;2023-03-01T01:18:03;101763.47;;;-0.04;100.00
24230;BME280;12362;50.004;8.006;2023-03-01T01:20:32;101766.81;;;-0.08;100.00
24230;BME280;12362;50.004;8.006;2023-03-01T01:22:57;101761.00;;;0.02;100.00
24230;BME280;12362;50.004;8.006;2023-03-01T01:25:23;101750.75;;;-0.01;100.00
24230;BME280;12362;50.004;8.006;2023-03-01T01:27:50;101750.66;;;-0.05;100.00
24230;BME280;12362;50.004;8.006;2023-03-01T01:30:16;101749.63;;;-0.19;100.00
24230;BME280;12362;50.004;8.006;2023-03-01T01:32:42;101735.09;;;-0.22;100.00
24230;BME280;12362;50.004;8.006;2023-03-01T01:35:08;101739.16;;;-0.33;100.00
24230;BME280;12362;50.004;8.006;2023-03-01T01:37:33;101736.63;;;-0.33;100.00
24230;BME280;12362;50.004;8.006;2023-03-01T01:40:00;101741.66;;;-0.37;100.00
24230;BME280;12362;50.004;8.006;2023-03-01T01:42:26;101734.81;;;-0.40;100.00
24230;BME280;12362;50.004;8.006;2023-03-01T01:45:31;101723.09;;;-0.30;100.00
24230;BME280;12362;50.004;8.006;2023-03-01T01:48:03;101724.06;;;-0.22;100.00
24230;BME280;12362;50.004;8.006;2023-03-01T01:50:32;101720.72;;;-0.17;100.00
24230;BME280;12362;50.004;8.006;2023-03-01T01:53:13;101716.56;;;-0.12;100.00
24230;BME280;12362;50.004;8.006;2023-03-01T01:55:45;101717.50;;;-0.05;100.00
24230;BME280;12362;50.004;8.006;2023-03-01T01:58:15;101718.47;;;0.02;100.00
24230;BME280;12362;50.004;8.006;2023-03-01T02:00:43;101722.75;;;0.05;100.00
24230;BME280;12362;50.004;8.006;2023-03-01T02:03:14;101716.88;;;0.09;100.00
24230;BME280;12362;50.004;8.006;2023-03-01T02:05:55;101714.38;;;0.13;100.00
24230;BME280;12362;50.004;8.006;2023-03-01T02:08:25;101710.16;;;0.15;100.00
24230;BME280;12362;50.004;8.006;2023-03-01T02:10:52;101716.94;;;0.13;100.00
24230;BME280;12362;50.004;8.006;2023-03-01T02:13:20;101704.13;;;0.10;100.00
24230;BME280;12362;50.004;8.006;2023-03-01T02:15:45;101707.50;;;0.08;100.00
24230;BME280;12362;50.004;8.006;2023-03-01T02:18:14;101704.06;;;0.06;100.00
24230;BME280;12362;50.004;8.006;2023-03-01T02:23:13;101715.88;;;0.01;100.00
24230;BME280;12362;50.004;8.006;2023-03-01T02:25:47;101709.81;;;-0.07;100.00
24230;BME280;12362;50.004;8.006;2023-03-01T02:30:46;101696.09;;;-0.15;100.00
24230;BME280;12362;50.004;8.006;2023-03-01T02:33:33;101705.44;;;-0.15;100.00
24230;BME280;12362;50.004;8.006;2023-03-01T02:36:11;101705.22;;;-0.30;100.00
24230;BME280;12362;50.004;8.006;2023-03-01T02:38:43;101705.66;;;-0.54;100.00
24230;BME280;12362;50.004;8.006;2023-03-01T02:41:12;101704.66;;;-0.63;100.00
24230;BME280;12362;50.004;8.006;2023-03-01T02:43:38;101701.34;;;-0.59;100.00
24230;BME280;12362;50.004;8.006;2023-03-01T02:46:27;101696.22;;;-0.59;100.00
24230;BME280;12362;50.004;8.006;2023-03-01T02:49:27;101683.63;;;-0.52;100.00
24230;BME280;12362;50.004;8.006;2023-03-01T02:56:56;101680.19;;;-0.54;100.00
24230;BME280;12362;50.004;8.006;2023-03-01T02:59:28;101677.69;;;-0.51;100.00
24230;BME280;12362;50.004;8.006;2023-03-01T03:01:54;101664.88;;;-0.52;100.00
24230;BME280;12362;50.004;8.006;2023-03-01T03:04:20;101664.06;;;-0.51;100.00
24230;BME280;12362;50.004;8.006;2023-03-01T03:06:51;101663.22;;;-0.52;100.00
24230;BME280;12362;50.004;8.006;2023-03-01T03:09:17;101656.25;;;-0.60;100.00
24230;BME280;12362;50.004;8.006;2023-03-01T03:11:44;101660.97;;;-0.83;100.00
24230;BME280;12362;50.004;8.006;2023-03-01T03:14:11;101664.34;;;-0.85;100.00
24230;BME280;12362;50.004;8.006;2023-03-01T03:16:47;101655.03;;;-0.82;100.00
24230;BME280;12362;50.004;8.006;2023-03-01T03:19:18;101644.22;;;-0.70;100.00
24230;BME280;12362;50.004;8.006;2023-03-01T03:21:44;101646.00;;;-0.66;100.00
24230;BME280;12362;50.004;8.006;2023-03-01T03:24:10;101646.00;;;-0.65;100.00
24230;BME280;12362;50.004;8.006;2023-03-01T03:26:35;101642.63;;;-0.62;100.00
24230;BME280;12362;50.004;8.006;2023-03-01T03:29:01;101644.22;;;-0.70;100.00
24230;BME280;12362;50.004;8.006;2023-03-01T03:31:27;101649.03;;;-0.85;100.00
24230;BME280;12362;50.004;8.006;2023-03-01T03:33:53;101650.69;;;-0.90;100.00
24230;BME280;12362;50.004;8.006;2023-03-01T03:36:21;101643.06;;;-0.87;100.00
24230;BME280;12362;50.004;8.006;2023-03-01T03:38:47;101640.56;;;-0.86;100.00
24230;BME280;12362;50.004;8.006;2023-03-01T03:41:14;101637.75;;;-1.00;100.00
24230;BME280;12362;50.004;8.006;2023-03-01T03:43:41;101640.06;;;-1.12;100.00
24230;BME280;12362;50.004;8.006;2023-03-01T03:46:09;101628.63;;;-1.35;100.00
24230;BME280;12362;50.004;8.006;2023-03-01T03:48:51;101638.88;;;-1.32;100.00
24230;BME280;12362;50.004;8.006;2023-03-01T03:51:18;101634.75;;;-1.26;100.00
24230;BME280;12362;50.004;8.006;2023-03-01T03:53:44;101622.97;;;-1.19;100.00
24230;BME280;12362;50.004;8.006;2023-03-01T03:56:11;101631.47;;;-1.17;100.00
24230;BME280;12362;50.004;8.006;2023-03-01T03:58:37;101627.94;;;-1.25;100.00
24230;BME280;12362;50.004;8.006;2023-03-01T04:01:03;101628.63;;;-1.34;100.00
24230;BME280;12362;50.004;8.006;2023-03-01T04:03:30;101623.59;;;-1.32;100.00
24230;BME280;12362;50.004;8.006;2023-03-01T04:05:58;101625.25;;;-1.33;100.00
24230;BME280;12362;50.004;8.006;2023-03-01T04:08:24;101624.38;;;-1.35;100.00
24230;BME280;12362;50.004;8.006;2023-03-01T04:10:52;101615.75;;;-1.43;100.00
24230;BME280;12362;50.004;8.006;2023-03-01T04:13:20;101624.19;;;-1.45;100.00
24230;BME280;12362;50.004;8.006;2023-03-01T04:15:48;101624.94;;;-1.49;100.00
24230;BME280;12362;50.004;8.006;2023-03-01T04:18:15;101623.22;;;-1.52;100.00
24230;BME280;12362;50.004;8.006;2023-03-01T04:20:41;101613.88;;;-1.51;100.00
24230;BME280;12362;50.004;8.006;2023-03-01T04:23:12;101626.44;;;-1.60;100.00
24230;BME280;12362;50.004;8.006;2023-03-01T04:25:58;101628.22;;;-1.56;100.00
24230;BME280;12362;50.004;8.006;2023-03-01T04:28:34;101624.13;;;-1.47;100.00
24230;BME280;12362;50.004;8.006;2023-03-01T04:31:09;101626.50;;;-1.57;100.00
24230;BME280;12362;50.004;8.006;2023-03-01T04:33:49;101620.44;;;-1.64;100.00
24230;BME280;12362;50.004;8.006;2023-03-01T04:36:18;101628.16;;;-1.59;100.00
24230;BME280;12362;50.004;8.006;2023-03-01T04:38:44;101623.94;;;-1.57;100.00
24230;BME280;12362;50.004;8.006;2023-03-01T04:41:13;101630.78;;;-1.53;100.00
24230;BME280;12362;50.004;8.006;2023-03-01T04:43:39;101629.06;;;-1.56;100.00
24230;BME280;12362;50.004;8.006;2023-03-01T04:46:11;101627.41;;;-1.54;100.00
24230;BME280;12362;50.004;8.006;2023-03-01T04:48:43;101629.13;;;-1.53;100.00
24230;BME280;12362;50.004;8.006;2023-03-01T04:51:10;101621.50;;;-1.53;100.00
24230;BME280;12362;50.004;8.006;2023-03-01T04:53:39;101630.03;;;-1.49;100.00
24230;BME280;12362;50.004;8.006;2023-03-01T04:56:05;101630.53;;;-1.68;100.00
24230;BME280;12362;50.004;8.006;2023-03-01T04:58:31;101625.13;;;-1.82;100.00
24230;BME280;12362;50.004;8.006;2023-03-01T05:00:58;101629.38;;;-1.82;100.00
24230;BME280;12362;50.004;8.006;2023-03-01T05:03:24;101627.72;;;-1.80;100.00
24230;BME280;12362;50.004;8.006;2023-03-01T05:05:50;101622.66;;;-1.79;100.00
24230;BME280;12362;50.004;8.006;2023-03-01T05:08:16;101620.03;;;-1.83;100.00
24230;BME280;12362;50.004;8.006;2023-03-01T05:10:53;101623.38;;;-1.85;100.00
24230;BME280;12362;50.004;8.006;2023-03-01T05:13:20;101617.22;;;-1.95;100.00
24230;BME280;12362;50.004;8.006;2023-03-01T05:16:00;101618.72;;;-2.04;100.00
24230;BME280;12362;50.004;8.006;2023-03-01T05:18:27;101612.88;;;-2.00;100.00
24230;BME280;12362;50.004;8.006;2023-03-01T05:20:55;101606.88;;;-2.04;100.00
24230;BME280;12362;50.004;8.006;2023-03-01T05:23:24;101567.81;;;-2.07;100.00
24230;BME280;12362;50.004;8.006;2023-03-01T05:25:50;101572.09;;;-2.03;100.00
24230;BME280;12362;50.004;8.006;2023-03-01T05:28:18;101572.84;;;-2.09;100.00
24230;BME280;12362;50.004;8.006;2023-03-01T05:30:45;101578.03;;;-2.04;100.00
24230;BME280;12362;50.004;8.006;2023-03-01T05:33:11;101582.19;;;-2.09;100.00
24230;BME280;12362;50.004;8.006;2023-03-01T05:35:44;101576.19;;;-2.11;100.00
24230;BME280;12362;50.004;8.006;2023-03-01T05:38:11;101581.31;;;-2.10;100.00
24230;BME280;12362;50.004;8.006;2023-03-01T05:40:42;101576.31;;;-2.05;100.00
24230;BME280;12362;50.004;8.006;2023-03-01T05:43:09;101572.19;;;-2.00;100.00
24230;BME280;12362;50.004;8.006;2023-03-01T05:45:36;101576.38;;;-2.02;100.00
24230;BME280;12362;50.004;8.006;2023-03-01T05:48:07;101571.84;;;-2.17;100.00
24230;BME280;12362;50.004;8.006;2023-03-01T05:50:36;101573.50;;;-2.17;100.00
24230;BME280;12362;50.004;8.006;2023-03-01T05:53:05;101569.88;;;-2.30;100.00
24230;BME280;12362;50.004;8.006;2023-03-01T05:55:31;101570.78;;;-2.26;100.00
24230;BME280;12362;50.004;8.006;2023-03-01T05:57:58;101574.94;;;-2.31;100.00
24230;BME280;12362;50.004;8.006;2023-03-01T06:00:24;101579.28;;;-2.26;100.00
24230;BME280;12362;50.004;8.006;2023-03-01T06:02:50;101574.38;;;-2.17;100.00
24230;BME280;12362;50.004;8.006;2023-03-01T06:05:17;101578.66;;;-2.16;100.00
24230;BME280;12362;50.004;8.006;2023-03-01T06:07:43;101574.56;;;-2.08;100.00
24230;BME280;12362;50.004;8.006;2023-03-01T06:10:10;101581.38;;;-2.07;100.00
24230;BME280;12362;50.004;8.006;2023-03-01T06:12:37;101575.47;;;-2.04;100.00
24230;BME280;12362;50.004;8.006;2023-03-01T06:15:05;101584.06;;;-1.99;100.00
24230;BME280;12362;50.004;8.006;2023-03-01T06:17:34;101578.66;;;-2.14;100.00
24230;BME280;12362;50.004;8.006;2023-03-01T06:20:05;101583.69;;;-2.17;100.00
24230;BME280;12362;50.004;8.006;2023-03-01T06:22:32;101581.94;;;-2.20;100.00
24230;BME280;12362;50.004;8.006;2023-03-01T06:24:57;101581.13;;;-2.17;100.00
24230;BME280;12362;50.004;8.006;2023-03-01T06:27:23;101581.38;;;-2.05;100.00
24230;BME280;12362;50.004;8.006;2023-03-01T06:29:50;101570.69;;;-1.91;100.00
24230;BME280;12362;50.004;8.006;2023-03-01T06:32:16;101570.03;;;-1.81;100.00
24230;BME280;12362;50.004;8.006;2023-03-01T06:34:42;101575.97;;;-1.81;100.00
24230;BME280;12362;50.004;8.006;2023-03-01T06:37:08;101575.91;;;-1.83;100.00
24230;BME280;12362;50.004;8.006;2023-03-01T06:39:33;101570.03;;;-1.81;100.00
24230;BME280;12362;50.004;8.006;2023-03-01T06:41:59;101578.59;;;-1.76;100.00
24230;BME280;12362;50.004;8.006;2023-03-01T06:44:28;101565.91;;;-1.75;100.00
24230;BME280;12362;50.004;8.006;2023-03-01T06:46:53;101565.25;;;-1.65;100.00
24230;BME280;12362;50.004;8.006;2023-03-01T06:49:19;101573.94;;;-1.55;100.00
24230;BME280;12362;50.004;8.006;2023-03-01T06:51:45;101559.72;;;-1.43;100.00
24230;BME280;12362;50.004;8.006;2023-03-01T06:54:11;101558.34;;;-1.24;100.00
24230;BME280;12362;50.004;8.006;2023-03-01T06:56:37;101564.56;;;-1.09;100.00
24230;BME280;12362;50.004;8.006;2023-03-01T06:59:03;101562.25;;;-0.94;100.00
24230;BME280;12362;50.004;8.006;2023-03-01T07:01:29;101562.50;;;-0.79;100.00
24230;BME280;12362;50.004;8.006;2023-03-01T07:03:58;101555.00;;;-0.69;100.00
24230;BME280;12362;50.004;8.006;2023-03-01T07:06:27;101562.03;;;-0.54;100.00
24230;BME280;12362;50.004;8.006;2023-03-01T07:08:52;101566.56;;;-0.34;100.00
24230;BME280;12362;50.004;8.006;2023-03-01T07:11:18;101556.56;;;-0.17;100.00
24230;BME280;12362;50.004;8.006;2023-03-01T07:13:44;101562.75;;;0.01;100.00
24230;BME280;12362;50.004;8.006;2023-03-01T07:19:15;101561.56;;;0.45;100.00
24230;BME280;12362;50.004;8.006;2023-03-01T07:21:43;101556.72;;;0.69;100.00
24230;BME280;12362;50.004;8.006;2023-03-01T08:31:40;101496.56;;;4.49;100.00
24230;BME280;12362;50.004;8.006;2023-03-01T08:34:13;101490.56;;;4.49;100.00
24230;BME280;12362;50.004;8.006;2023-03-01T08:44:34;101477.19;;;5.09;100.00
24230;BME280;12362;50.004;8.006;2023-03-01T08:47:00;101474.78;;;4.92;98.86
24230;BME280;12362;50.004;8.006;2023-03-01T08:49:27;101475.31;;;5.27;100.00
24230;BME280;12362;50.004;8.006;2023-03-01T08:51:53;101475.16;;;5.42;97.20
24230;BME280;12362;50.004;8.006;2023-03-01T08:54:20;101473.38;;;5.48;100.00
24230;BME280;12362;50.004;8.006;2023-03-01T08:56:47;101473.59;;;5.26;94.43
24230;BME280;12362;50.004;8.006;2023-03-01T08:59:14;101461.31;;;5.49;91.16
24230;BME280;12362;50.004;8.006;2023-03-01T09:01:40;101462.72;;;5.75;90.35
24230;BME280;12362;50.004;8.006;2023-03-01T09:04:09;101455.91;;;5.70;92.33
24230;BME280;12362;50.004;8.006;2023-03-01T09:06:36;101447.66;;;6.13;90.13
24230;BME280;12362;50.004;8.006;2023-03-01T09:09:03;101452.72;;;6.18;87.91
24230;BME280;12362;50.004;8.006;2023-03-01T09:11:29;101450.47;;;6.54;85.75
24230;BME280;12362;50.004;8.006;2023-03-01T09:13:55;101439.38;;;6.49;83.34
24230;BME280;12362;50.004;8.006;2023-03-01T09:16:22;101435.94;;;6.48;84.72
24230;BME280;12362;50.004;8.006;2023-03-01T09:18:52;101425.19;;;6.74;80.45
24230;BME280;12362;50.004;8.006;2023-03-01T09:21:20;101429.31;;;6.85;79.36
24230;BME280;12362;50.004;8.006;2023-03-01T09:23:47;101433.50;;;6.91;78.36
24230;BME280;12362;50.004;8.006;2023-03-01T09:26:18;101422.34;;;6.89;76.05
24230;BME280;12362;50.004;8.006;2023-03-01T09:28:45;101424.19;;;6.82;75.50
24230;BME280;12362;50.004;8.006;2023-03-01T09:31:11;101424.50;;;7.13;70.23
24230;BME280;12362;50.004;8.006;2023-03-01T09:33:39;101409.97;;;7.51;72.60
24230;BME280;12362;50.004;8.006;2023-03-01T09:36:07;101413.25;;;7.15;68.76
24230;BME280;12362;50.004;8.006;2023-03-01T09:38:33;101411.94;;;7.38;70.32
24230;BME280;12362;50.004;8.006;2023-03-01T09:41:00;101411.50;;;7.17;70.38
24230;BME280;12362;50.004;8.006;2023-03-01T09:43:48;101405.78;;;7.45;68.56
24230;BME280;12362;50.004;8.006;2023-03-01T09:46:26;101408.16;;;7.95;65.04
24230;BME280;12362;50.004;8.006;2023-03-01T09:48:58;101407.22;;;7.98;65.86
24230;BME280;12362;50.004;8.006;2023-03-01T09:51:30;101408.25;;;7.91;66.02
24230;BME280;12362;50.004;8.006;2023-03-01T09:53:56;101402.72;;;8.45;63.85
24230;BME280;12362;50.004;8.006;2023-03-01T09:57:14;101401.56;;;8.20;61.80
24230;BME280;12362;50.004;8.006;2023-03-01T10:00:00;101392.06;;;8.57;61.97
24230;BME280;12362;50.004;8.006;2023-03-01T10:02:45;101386.00;;;8.90;59.22
24230;BME280;12362;50.004;8.006;2023-03-01T10:05:33;101383.25;;;8.29;59.77
24230;BME280;12362;50.004;8.006;2023-03-01T10:08:33;101379.91;;;8.92;59.62
24230;BME280;12362;50.004;8.006;2023-03-01T10:11:03;101381.97;;;8.80;57.78
24230;BME280;12362;50.004;8.006;2023-03-01T10:16:03;101378.53;;;9.11;59.89
24230;BME280;12362;50.004;8.006;2023-03-01T10:18:32;101372.28;;;9.18;56.26
24230;BME280;12362;50.004;8.006;2023-03-01T10:21:09;101375.69;;;9.50;56.27
24230;BME280;12362;50.004;8.006;2023-03-01T10:23:37;101368.91;;;8.84;56.93
24230;BME280;12362;50.004;8.006;2023-03-01T10:29:14;101360.13;;;8.56;58.44
24230;BME280;12362;50.004;8.006;2023-03-01T10:31:48;101354.47;;;9.65;56.00
24230;BME280;12362;50.004;8.006;2023-03-01T10:34:17;101347.88;;;9.26;57.14
24230;BME280;12362;50.004;8.006;2023-03-01T10:36:46;101344.53;;;9.79;56.58
24230;BME280;12362;50.004;8.006;2023-03-01T10:39:22;101347.13;;;8.91;57.97
24230;BME280;12362;50.004;8.006;2023-03-01T10:41:58;101334.59;;;9.66;54.47
24230;BME280;12362;50.004;8.006;2023-03-01T10:44:53;101334.00;;;9.27;56.05
24230;BME280;12362;50.004;8.006;2023-03-01T10:47:26;101323.13;;;9.73;57.20
24230;BME280;12362;50.004;8.006;2023-03-01T10:50:04;101323.56;;;10.40;54.81
24230;BME280;12362;50.004;8.006;2023-03-01T10:52:36;101317.63;;;9.83;53.70
24230;BME280;12362;50.004;8.006;2023-03-01T10:55:31;101314.47;;;10.01;53.97
24230;BME280;12362;50.004;8.006;2023-03-01T10:58:19;101311.22;;;9.94;52.95
24230;BME280;12362;50.004;8.006;2023-03-01T11:00:51;101299.13;;;10.21;51.84
24230;BME280;12362;50.004;8.006;2023-03-01T11:03:21;101296.53;;;10.21;52.26
24230;BME280;12362;50.004;8.006;2023-03-01T11:05:58;101294.91;;;10.67;51.64
24230;BME280;12362;50.004;8.006;2023-03-01T11:08:31;101287.31;;;10.85;50.66
24230;BME280;12362;50.004;8.006;2023-03-01T11:13:56;101284.91;;;10.06;51.95
24230;BME280;12362;50.004;8.006;2023-03-01T11:16:25;101280.69;;;10.02;51.71
24230;BME280;12362;50.004;8.006;2023-03-01T11:19:14;101285.69;;;10.34;52.31
24230;BME280;12362;50.004;8.006;2023-03-01T11:24:36;101274.22;;;10.40;51.73
24230;BME280;12362;50.004;8.006;2023-03-01T11:27:28;101271.06;;;10.81;51.81
24230;BME280;12362;50.004;8.006;2023-03-01T11:30:02;101257.28;;;11.01;50.59
24230;BME280;12362;50.004;8.006;2023-03-01T11:32:43;101261.91;;;9.94;50.68
24230;BME280;12362;50.004;8.006;2023-03-01T11:35:24;101267.34;;;10.13;52.59
24230;BME280;12362;50.004;8.006;2023-03-01T11:38:04;101270.66;;;10.18;51.32
24230;BME280;12362;50.004;8.006;2023-03-01T11:40:47;101269.84;;;10.42;51.77
24230;BME280;12362;50.004;8.006;2023-03-01T11:46:26;101258.28;;;10.75;50.25
24230;BME280;12362;50.004;8.006;2023-03-01T11:49:16;101247.53;;;10.83;49.58
24230;BME280;12362;50.004;8.006;2023-03-01T11:55:07;101241.63;;;10.80;51.05
24230;BME280;12362;50.004;8.006;2023-03-01T12:04:36;101218.03;;;11.09;47.24
24230;BME280;12362;50.004;8.006;2023-03-01T12:10:19;101194.78;;;11.70;48.05
24230;BME280;12362;50.004;8.006;2023-03-01T12:15:44;101191.19;;;11.94;46.17
24230;BME280;12362;50.004;8.006;2023-03-01T12:18:22;101186.13;;;11.48;45.19
24230;BME280;12362;50.004;8.006;2023-03-01T12:26:24;101180.03;;;11.71;45.03
24230;BME280;12362;50.004;8.006;2023-03-01T12:28:55;101169.66;;;12.30;46.15
24230;BME280;12362;50.004;8.006;2023-03-01T12:31:42;101160.59;;;11.36;45.38
24230;BME280;12362;50.004;8.006;2023-03-01T12:34:49;101160.75;;;11.55;46.03
24230;BME280;12362;50.004;8.006;2023-03-01T12:40:11;101149.72;;;12.09;43.71
24230;BME280;12362;50.004;8.006;2023-03-01T12:51:15;101142.56;;;12.72;42.98
24230;BME280;12362;50.004;8.006;2023-03-01T12:53:47;101132.41;;;13.03;43.80
24230;BME280;12362;50.004;8.006;2023-03-01T12:56:16;101126.28;;;12.86;44.13
24230;BME280;12362;50.004;8.006;2023-03-01T13:01:39;101093.63;;;13.50;41.48
24230;BME280;12362;50.004;8.006;2023-03-01T13:12:03;101084.31;;;14.12;41.33
24230;BME280;12362;50.004;8.006;2023-03-01T13:21:44;101073.22;;;13.05;43.25
24230;BME280;12362;50.004;8.006;2023-03-01T13:32:33;101066.34;;;12.68;44.26
24230;BME280;12362;50.004;8.006;2023-03-01T13:37:46;101063.28;;;12.76;44.83
24230;BME280;12362;50.004;8.006;2023-03-01T13:42:45;101060.16;;;11.95;44.45
24230;BME280;12362;50.004;8.006;2023-03-01T13:45:21;101061.50;;;12.03;45.24
24230;BME280;12362;50.004;8.006;2023-03-01T13:47:56;101063.41;;;12.00;45.53
24230;BME280;12362;50.004;8.006;2023-03-01T13:50:27;101053.25;;;11.94;45.02
24230;BME280;12362;50.004;8.006;2023-03-01T13:52:56;101056.28;;;11.65;45.58
24230;BME280;12362;50.004;8.006;2023-03-01T13:55:37;101043.50;;;11.99;44.83
24230;BME280;12362;50.004;8.006;2023-03-01T13:58:24;101043.03;;;12.28;45.22
24230;BME280;12362;50.004;8.006;2023-03-01T14:01:04;101039.63;;;12.26;46.04
24230;BME280;12362;50.004;8.006;2023-03-01T14:03:32;101037.03;;;12.07;45.99
24230;BME280;12362;50.004;8.006;2023-03-01T14:06:12;101038.25;;;11.80;47.22
24230;BME280;12362;50.004;8.006;2023-03-01T14:08:38;101037.63;;;11.94;47.70
24230;BME280;12362;50.004;8.006;2023-03-01T14:13:58;101029.06;;;12.10;45.85
24230;BME280;12362;50.004;8.006;2023-03-01T14:21:44;101024.28;;;12.01;45.58
24230;BME280;12362;50.004;8.006;2023-03-01T14:24:18;101037.59;;;11.76;46.41
24230;BME280;12362;50.004;8.006;2023-03-01T14:26:46;101036.28;;;11.46;46.22
24230;BME280;12362;50.004;8.006;2023-03-01T14:32:33;101048.88;;;11.35;48.26
24230;BME280;12362;50.004;8.006;2023-03-01T14:35:29;101050.00;;;11.69;48.15
24230;BME280;12362;50.004;8.006;2023-03-01T15:18:18;101015.78;;;10.77;53.12
24230;BME280;12362;50.004;8.006;2023-03-01T15:59:25;101044.84;;;8.69;57.64
24230;BME280;12362;50.004;8.006;2023-03-01T16:02:27;101048.09;;;8.75;60.37
24230;BME280;12362;50.004;8.006;2023-03-01T16:08:39;101051.88;;;8.36;64.00
24230;BME280;12362;50.004;8.006;2023-03-01T16:11:17;101050.94;;;8.08;65.17
24230;BME280;12362;50.004;8.006;2023-03-01T16:13:46;101055.34;;;8.05;65.43
24230;BME280;12362;50.004;8.006;2023-03-01T16:16:33;101048.78;;;7.94;65.36
24230;BME280;12362;50.004;8.006;2023-03-01T16:19:06;101056.84;;;7.83;66.15
24230;BME280;12362;50.004;8.006;2023-03-01T16:21:37;101051.25;;;7.66;70.99
24230;BME280;12362;50.004;8.006;2023-03-01T16:24:09;101048.03;;;7.58;72.79
24230;BME280;12362;50.004;8.006;2023-03-01T16:26:40;101049.56;;;7.65;69.14
24230;BME280;12362;50.004;8.006;2023-03-01T16:29:20;101048.25;;;7.51;75.55
24230;BME280;12362;50.004;8.006;2023-03-01T16:31:46;101050.13;;;7.44;78.53
24230;BME280;12362;50.004;8.006;2023-03-01T16:34:21;101048.78;;;7.30;73.57
24230;BME280;12362;50.004;8.006;2023-03-01T16:37:16;101057.25;;;7.36;71.15
24230;BME280;12362;50.004;8.006;2023-03-01T19:07:56;101079.00;;;4.62;89.33
24230;BME280;12362;50.004;8.006;2023-03-01T19:11:20;101084.81;;;4.76;91.83
24230;BME280;12362;50.004;8.006;2023-03-01T19:26:17;101097.84;;;4.66;92.38
24230;BME280;12362;50.004;8.006;2023-03-01T20:51:22;101144.53;;;0.89;100.00
24230;BME280;12362;50.004;8.006;2023-03-01T20:53:52;101143.69;;;0.97;100.00
24230;BME280;12362;50.004;8.006;2023-03-01T20:56:24;101148.00;;;1.13;100.00
24230;BME280;12362;50.004;8.006;2023-03-01T20:59:01;101146.28;;;1.33;100.00
24230;BME280;12362;50.004;8.006;2023-03-01T21:01:28;101132.63;;;1.55;100.00
24230;BME280;12362;50.004;8.006;2023-03-01T21:03:54;101132.66;;;1.57;100.00
24230;BME280;12362;50.004;8.006;2023-03-01T21:06:20;101131.81;;;1.35;100.00
24230;BME280;12362;50.004;8.006;2023-03-01T21:08:46;101137.59;;;0.43;100.00
24230;BME280;12362;50.004;8.006;2023-03-01T21:11:12;101140.16;;;0.43;100.00
24230;BME280;12362;50.004;8.006;2023-03-01T21:13:38;101134.25;;;0.59;100.00
24230;BME280;12362;50.004;8.006;2023-03-01T21:16:10;101132.56;;;0.72;100.00
24230;BME280;12362;50.004;8.006;2023-03-01T21:19:06;101133.44;;;0.77;100.00
24230;BME280;12362;50.004;8.006;2023-03-01T21:21:33;101135.09;;;0.57;100.00
24230;BME280;12362;50.004;8.006;2023-03-01T21:23:58;101139.31;;;0.44;100.00
24230;BME280;12362;50.004;8.006;2023-03-01T21:26:26;101138.47;;;0.45;100.00
24230;BME280;12362;50.004;8.006;2023-03-01T21:29:04;101129.91;;;0.36;100.00
24230;BME280;12362;50.004;8.006;2023-03-01T21:31:34;101129.09;;;0.38;100.00
24230;BME280;12362;50.004;8.006;2023-03-01T21:34:02;101130.72;;;0.30;100.00